Time;durP1;ratioP1;P1;durP2;ratioP2;P2;SDS_P1;SDS_P2;PMS_P1;PMS_P2;Temp;Humidity;BMP_temperature;BMP_pressure;BME280_temperature;BME280_humidity;BME280_pressure;Samples;Min_cycle;Max_cycle;Signal;HPM_P1;HPM_P2
2022/11/24 00:02:36;;;;;;;8.27;1.73;;;10.30;70.20;;;;;;4983916;28;20092;-87
2022/11/24 00:05:21;;;;;;;8.52;1.92;;;10.30;70.30;;;;;;4986984;28;20493;-85
2022/11/24 00:08:06;;;;;;;7.35;2.33;;;10.30;70.30;;;;;;4988129;28;20183;-84
2022/11/24 00:10:50;;;;;;;10.00;2.30;;;10.30;70.40;;;;;;4978480;28;20647;-83
2022/11/24 00:13:37;;;;;;;7.82;2.35;;;10.30;70.40;;;;;;4989548;28;20543;-85
2022/11/24 00:16:31;;;;;;;5.97;1.70;;;10.20;70.70;;;;;;4978796;28;20563;-85
2022/11/24 00:19:16;;;;;;;7.32;2.00;;;10.30;70.50;;;;;;4994372;28;20061;-83
2022/11/24 00:22:00;;;;;;;4.55;1.60;;;10.30;70.50;;;;;;4969263;28;20097;-87
2022/11/24 00:24:45;;;;;;;6.85;2.22;;;10.30;70.50;;;;;;4988435;28;20076;-85
2022/11/24 00:27:30;;;;;;;7.35;1.83;;;10.30;70.50;;;;;;4992462;28;20049;-89
2022/11/24 00:30:14;;;;;;;7.38;2.40;;;10.30;70.50;;;;;;4988795;28;20674;-87
2022/11/24 00:32:59;;;;;;;7.47;2.10;;;10.30;70.60;;;;;;4990002;28;20045;-88
2022/11/24 00:35:43;;;;;;;10.52;2.72;;;10.20;70.40;;;;;;4977814;28;20046;-86
2022/11/24 00:38:28;;;;;;;11.48;2.50;;;10.30;70.60;;;;;;4988425;28;20736;-87
2022/11/24 00:41:13;;;;;;;11.10;2.45;;;10.20;70.40;;;;;;4985877;28;20276;-86
2022/11/24 00:43:58;;;;;;;10.02;2.03;;;10.20;70.40;;;;;;4984069;28;20240;-87
2022/11/24 00:46:43;;;;;;;8.90;2.38;;;10.20;70.50;;;;;;4986722;28;20093;-85
2022/11/24 00:49:27;;;;;;;7.38;1.73;;;10.20;70.50;;;;;;4989893;28;20061;-87
2022/11/24 00:52:12;;;;;;;11.95;3.05;;;10.20;70.50;;;;;;4989826;28;20060;-84
2022/11/24 00:54:57;;;;;;;9.13;1.60;;;10.20;70.60;;;;;;4993030;28;20137;-83
2022/11/24 00:57:41;;;;;;;9.15;2.17;;;10.20;70.60;;;;;;4982546;28;20461;-84
2022/11/24 01:00:26;;;;;;;12.27;2.17;;;10.20;70.60;;;;;;4990942;28;20109;-85
2022/11/24 01:03:12;;;;;;;6.93;1.63;;;10.20;70.60;;;;;;4984227;28;20105;-82
2022/11/24 01:06:06;;;;;;;7.90;2.22;;;10.20;70.60;;;;;;4987634;28;20255;-83
2022/11/24 01:08:50;;;;;;;;;;;10.20;70.60;;;;;;4987634;28;20049;-84
2022/11/24 01:14:38;;;;;;;7.15;2.10;;;10.10;70.40;;;;;;4980829;28;20398;-85
2022/11/24 01:17:22;;;;;;;7.63;2.40;;;10.10;71.00;;;;;;4975838;28;20080;-86
2022/11/24 01:20:08;;;;;;;10.02;2.03;;;10.10;70.50;;;;;;4984882;28;20089;-86
2022/11/24 01:22:52;;;;;;;5.65;1.70;;;10.10;70.50;;;;;;4986078;28;20041;-86
2022/11/24 01:25:38;;;;;;;6.10;2.13;;;10.10;70.60;;;;;;4985549;28;20470;-85
2022/11/24 01:28:23;;;;;;;9.38;2.35;;;10.10;70.60;;;;;;4985840;28;20370;-83
2022/11/24 01:31:08;;;;;;;9.95;2.22;;;10.10;70.60;;;;;;4984089;28;20041;-85
2022/11/24 01:33:53;;;;;;;6.25;1.95;;;10.10;70.60;;;;;;4979286;28;20052;-85
2022/11/24 01:36:38;;;;;;;12.68;2.90;;;10.00;70.50;;;;;;4974549;28;20088;-84
2022/11/24 01:39:22;;;;;;;7.75;2.00;;;10.00;70.50;;;;;;4985339;28;20335;-83
2022/11/24 01:42:07;;;;;;;6.50;2.08;;;10.00;70.60;;;;;;4978107;28;20049;-84
2022/11/24 01:45:31;;;;;;;9.00;2.05;;;10.00;70.60;;;;;;4975964;28;20125;-83
2022/11/24 01:48:33;;;;;;;9.43;1.95;;;10.00;70.70;;;;;;4981035;28;20632;-84
2022/11/24 01:51:28;;;;;;;8.55;2.45;;;9.90;70.50;;;;;;4985495;28;20084;-84
2022/11/24 01:54:29;;;;;;;9.02;2.08;;;9.90;70.60;;;;;;4986648;28;20100;-84
2022/11/24 01:57:16;;;;;;;8.48;2.17;;;9.90;70.60;;;;;;4976142;28;20489;-84
2022/11/24 02:00:08;;;;;;;7.72;2.10;;;9.90;70.60;;;;;;4984219;28;20054;-85
2022/11/24 02:02:59;;;;;;;12.00;3.13;;;9.90;70.70;;;;;;4979352;28;20520;-85
2022/11/24 02:05:50;;;;;;;10.43;2.25;;;9.80;70.50;;;;;;4987621;28;20630;-85
2022/11/24 02:09:16;;;;;;;8.77;2.10;;;9.80;70.60;;;;;;4982479;28;20069;-84
2022/11/24 02:12:01;;;;;;;9.45;2.50;;;9.80;70.60;;;;;;4978721;28;20749;-84
2022/11/24 02:14:45;;;;;;;12.88;2.17;;;9.80;70.50;;;;;;4985507;28;20077;-84
2022/11/24 02:17:30;;;;;;;10.88;2.42;;;9.80;70.50;;;;;;4986664;28;20041;-84
2022/11/24 02:20:16;;;;;;;9.27;3.30;;;9.80;70.60;;;;;;4985133;28;20088;-85
2022/11/24 02:23:43;;;;;;;10.65;3.53;;;9.70;70.40;;;;;;4988822;28;20064;-84
2022/11/24 02:26:41;;;;;;;14.02;3.47;;;9.80;70.70;;;;;;4970516;28;20073;-85
2022/11/24 02:29:26;;;;;;;10.65;2.17;;;9.70;70.40;;;;;;4988674;28;20509;-85
2022/11/24 02:32:11;;;;;;;9.45;2.38;;;9.80;70.60;;;;;;4975062;28;20042;-85
2022/11/24 02:35:00;;;;;;;8.88;2.38;;;9.80;70.60;;;;;;4985435;28;20045;-86
2022/11/24 02:37:44;;;;;;;12.50;2.15;;;9.80;70.70;;;;;;4985498;28;20104;-85
2022/11/24 02:40:30;;;;;;;9.05;2.58;;;9.70;70.50;;;;;;4969596;28;20080;-85
2022/11/24 02:43:19;;;;;;;10.35;3.40;;;9.70;70.60;;;;;;4967983;28;20050;-85
2022/11/24 02:46:04;;;;;;;11.18;2.72;;;9.70;70.60;;;;;;4979330;28;20157;-86
2022/11/24 02:48:48;;;;;;;7.97;2.60;;;9.70;70.60;;;;;;4981624;28;20522;-84
2022/11/24 02:51:33;;;;;;;11.95;2.38;;;9.70;70.60;;;;;;4983922;28;20049;-86
2022/11/24 02:54:18;;;;;;;15.13;2.55;;;9.70;70.70;;;;;;4982513;28;20406;-86
2022/11/24 02:57:02;;;;;;;10.35;2.90;;;9.70;70.70;;;;;;4989769;28;20413;-85
2022/11/24 02:59:47;;;;;;;14.27;2.80;;;9.70;70.70;;;;;;4986368;28;20105;-85
2022/11/24 03:02:32;;;;;;;16.13;4.03;;;9.70;70.70;;;;;;4975978;28;20647;-85
2022/11/24 03:05:17;;;;;;;10.88;2.63;;;9.70;70.70;;;;;;4986345;28;20477;-84
2022/11/24 03:08:01;;;;;;;11.13;3.83;;;9.70;70.80;;;;;;4982079;28;20158;-81
2022/11/24 03:10:45;;;;;;;10.77;2.65;;;9.70;70.80;;;;;;4980239;28;20061;-84
2022/11/24 03:13:30;;;;;;;14.73;4.07;;;9.60;70.70;;;;;;4981486;28;20096;-83
2022/11/24 03:16:15;;;;;;;9.18;2.97;;;9.60;70.70;;;;;;4977000;28;20097;-83
2022/11/24 03:19:00;;;;;;;11.63;4.32;;;9.60;70.70;;;;;;4984358;28;20108;-82
2022/11/24 03:21:44;;;;;;;10.50;2.65;;;9.50;70.60;;;;;;4984051;28;20045;-82
2022/11/24 03:24:29;;;;;;;8.93;2.25;;;9.50;70.70;;;;;;4982641;28;20041;-82
2022/11/24 03:27:13;;;;;;;13.70;3.70;;;9.50;70.70;;;;;;4988401;28;20399;-83
2022/11/24 03:29:58;;;;;;;16.38;2.80;;;9.40;70.60;;;;;;4980940;28;20077;-83
2022/11/24 03:32:42;;;;;;;14.63;3.15;;;9.40;70.60;;;;;;4987789;28;20520;-82
2022/11/24 03:35:27;;;;;;;16.33;2.72;;;9.40;70.70;;;;;;4977265;28;20186;-84
2022/11/24 03:38:11;;;;;;;17.95;3.67;;;9.40;70.70;;;;;;4978296;28;20062;-84
2022/11/24 03:40:56;;;;;;;10.93;2.38;;;9.40;70.70;;;;;;4989017;28;20459;-84
2022/11/24 03:43:41;;;;;;;12.63;2.78;;;9.40;70.70;;;;;;4981959;28;20169;-83
2022/11/24 03:46:25;;;;;;;8.63;2.30;;;9.30;70.60;;;;;;4978792;28;20540;-83
2022/11/24 03:49:10;;;;;;;12.82;3.78;;;9.30;70.60;;;;;;4975992;28;20450;-83
2022/11/24 03:51:54;;;;;;;10.90;3.25;;;9.30;70.70;;;;;;4992773;28;20089;-83
2022/11/24 03:54:41;;;;;;;11.45;2.92;;;9.20;70.50;;;;;;4991410;28;20215;-84
2022/11/24 03:57:25;;;;;;;13.30;2.38;;;9.30;70.70;;;;;;4991694;28;20117;-84
2022/11/24 04:00:11;;;;;;;12.38;2.60;;;9.20;70.60;;;;;;4986758;28;20049;-84
2022/11/24 04:02:55;;;;;;;18.55;3.03;;;9.20;70.60;;;;;;4992407;28;20096;-83
2022/11/24 04:05:40;;;;;;;13.73;2.88;;;9.20;70.70;;;;;;4992006;28;20144;-84
2022/11/24 04:08:25;;;;;;;13.50;3.22;;;9.10;70.50;;;;;;4990572;28;20422;-83
2022/11/24 04:12:42;;;;;;;14.10;3.13;;;9.10;70.60;;;;;;4982513;28;20046;-85
2022/11/24 04:14:14;;;;;;;14.25;2.75;;;9.10;70.60;;;;;;4992326;28;20085;-84
2022/11/24 04:16:58;;;;;;;13.27;2.92;;;9.10;70.80;;;;;;4980171;28;20058;-83
2022/11/24 04:19:43;;;;;;;15.73;3.05;;;9.00;70.50;;;;;;4980734;28;20501;-83
2022/11/24 04:22:28;;;;;;;11.52;2.65;;;9.00;70.50;;;;;;4991779;28;20093;-83
2022/11/24 04:25:16;;;;;;;14.68;3.38;;;9.00;70.60;;;;;;4990224;28;20088;-83
2022/11/24 04:28:00;;;;;;;14.95;3.00;;;9.00;70.60;;;;;;4988255;28;20400;-83
2022/11/24 04:30:45;;;;;;;16.50;3.25;;;9.00;70.60;;;;;;4983166;28;20124;-84
2022/11/24 04:33:30;;;;;;;12.18;3.58;;;9.00;70.70;;;;;;4980631;28;20053;-83
2022/11/24 04:36:15;;;;;;;15.93;4.07;;;9.00;70.70;;;;;;4976227;28;20037;-83
2022/11/24 04:38:59;;;;;;;10.52;2.28;;;8.90;70.60;;;;;;4989971;28;20513;-83
2022/11/24 04:41:45;;;;;;;11.52;2.67;;;8.90;70.60;;;;;;4990711;28;20077;-83
2022/11/24 04:44:29;;;;;;;17.35;3.65;;;8.90;70.70;;;;;;4986674;28;20124;-84
2022/11/24 04:47:17;;;;;;;11.18;2.83;;;8.90;70.70;;;;;;4986980;28;20053;-85
2022/11/24 04:50:03;;;;;;;13.90;3.58;;;8.90;70.70;;;;;;4983832;28;20037;-85
2022/11/24 04:52:47;;;;;;;10.02;2.97;;;8.90;70.70;;;;;;4980156;28;20437;-84
2022/11/24 04:55:32;;;;;;;12.43;3.42;;;8.90;70.80;;;;;;4987549;28;20045;-83
2022/11/24 04:58:17;;;;;;;15.20;3.05;;;8.90;70.80;;;;;;4988705;28;20560;-84
2022/11/24 05:01:06;;;;;;;14.25;3.30;;;8.80;70.60;;;;;;4964468;28;20057;-83
2022/11/24 05:03:55;;;;;;;16.02;4.00;;;8.80;70.70;;;;;;4989160;28;20065;-83
2022/11/24 05:06:39;;;;;;;13.40;2.45;;;8.90;70.90;;;;;;4990554;28;20081;-83
2022/11/24 05:09:24;;;;;;;19.67;4.22;;;8.80;70.70;;;;;;4982483;28;20106;-82
2022/11/24 05:12:08;;;;;;;11.23;2.63;;;8.80;70.70;;;;;;4977303;28;20036;-83
2022/11/24 05:14:52;;;;;;;12.10;3.33;;;8.80;70.70;;;;;;4988708;28;20265;-83
2022/11/24 05:17:38;;;;;;;12.23;3.35;;;8.80;70.80;;;;;;4981493;28;20138;-83
2022/11/24 05:20:23;;;;;;;17.65;4.32;;;8.70;70.60;;;;;;4971153;28;20042;-83
2022/11/24 05:23:07;;;;;;;11.25;2.85;;;8.80;70.80;;;;;;4987146;28;20080;-83
2022/11/24 05:25:52;;;;;;;12.45;3.08;;;8.80;70.80;;;;;;4989821;28;20048;-82
2022/11/24 05:28:37;;;;;;;15.77;3.22;;;8.70;70.70;;;;;;4989986;28;20176;-82
2022/11/24 05:31:21;;;;;;;10.40;2.80;;;8.70;70.70;;;;;;4986699;28;20046;-83
2022/11/24 05:34:06;;;;;;;13.80;3.75;;;8.70;70.70;;;;;;4990430;28;20467;-82
2022/11/24 05:36:53;;;;;;;12.63;3.22;;;8.70;70.80;;;;;;4990075;28;20041;-82
2022/11/24 05:39:37;;;;;;;13.02;3.78;;;8.70;70.80;;;;;;4983590;28;20406;-83
2022/11/24 05:42:40;;;;;;;16.02;4.15;;;8.70;70.80;;;;;;4986400;28;20037;-83
2022/11/24 05:45:25;;;;;;;11.52;2.50;;;8.70;71.40;;;;;;4980177;28;20053;-84
2022/11/24 05:48:11;;;;;;;11.63;3.13;;;8.60;70.70;;;;;;4985572;28;20413;-83
2022/11/24 05:50:57;;;;;;;13.73;3.55;;;8.70;70.90;;;;;;4984211;28;20118;-83
2022/11/24 05:53:41;;;;;;;15.85;3.25;;;8.70;71.00;;;;;;4986574;28;20129;-84
2022/11/24 05:56:25;;;;;;;8.10;2.45;;;8.70;71.00;;;;;;4985608;28;20036;-83
2022/11/24 05:59:10;;;;;;;13.80;3.55;;;8.70;71.00;;;;;;4983033;28;20564;-85
2022/11/24 06:01:55;;;;;;;11.73;2.95;;;8.70;71.00;;;;;;4984300;28;20461;-83
2022/11/24 06:04:39;;;;;;;12.70;3.33;;;8.60;70.90;;;;;;4986085;28;20065;-83
2022/11/24 06:07:24;;;;;;;12.82;3.70;;;8.60;70.90;;;;;;4983789;28;20041;-83
2022/11/24 06:10:09;;;;;;;19.77;3.75;;;8.60;70.90;;;;;;4980737;28;20114;-83
2022/11/24 06:12:53;;;;;;;13.88;3.85;;;8.60;71.00;;;;;;4979511;28;20140;-83
2022/11/24 06:15:39;;;;;;;16.38;3.72;;;8.60;70.90;;;;;;4981093;28;20041;-83
2022/11/24 06:18:23;;;;;;;10.00;2.92;;;8.60;71.00;;;;;;4985067;28;20089;-84
2022/11/24 06:21:08;;;;;;;14.77;2.85;;;8.50;70.80;;;;;;4985213;28;20729;-85
2022/11/24 06:23:53;;;;;;;9.98;2.75;;;8.60;71.00;;;;;;4986480;28;20041;-84
2022/11/24 06:26:37;;;;;;;15.43;3.70;;;8.60;71.10;;;;;;4981648;28;20057;-83
2022/11/24 06:29:22;;;;;;;20.13;3.95;;;8.50;70.90;;;;;;4987305;28;20448;-83
2022/11/24 06:32:07;;;;;;;13.43;2.72;;;8.60;71.10;;;;;;4985897;28;20046;-86
2022/11/24 06:34:51;;;;;;;16.40;3.33;;;8.50;71.00;;;;;;4976518;28;20042;-89
2022/11/24 06:37:36;;;;;;;11.35;2.55;;;8.50;71.50;;;;;;4986396;28;20113;-83
2022/11/24 06:40:20;;;;;;;16.88;5.53;;;8.50;71.10;;;;;;4983507;28;20084;-88
2022/11/24 06:43:05;;;;;;;12.80;2.72;;;8.50;71.10;;;;;;4984262;28;20119;-86
2022/11/24 06:45:53;;;;;;;10.35;2.97;;;8.50;71.10;;;;;;4970761;28;20098;-82
2022/11/24 06:48:37;;;;;;;14.00;3.40;;;8.50;71.20;;;;;;4978563;28;20134;-84
2022/11/24 06:51:22;;;;;;;14.88;4.15;;;8.50;71.10;;;;;;4985554;28;20045;-89
2022/11/24 06:54:08;;;;;;;15.68;3.10;;;8.60;71.30;;;;;;4992377;28;20046;-84
2022/11/24 06:56:57;;;;;;;16.75;4.63;;;8.60;71.30;;;;;;4985800;28;20572;-88
2022/11/24 06:59:41;;;;;;;17.25;3.88;;;8.60;71.50;;;;;;4984649;28;20081;-90
2022/11/24 07:02:26;;;;;;;18.85;3.38;;;8.60;71.60;;;;;;4983736;28;20412;-82
2022/11/24 07:05:10;;;;;;;17.27;4.88;;;8.70;71.80;;;;;;4975850;28;20064;-80
2022/11/24 07:07:57;;;;;;;16.90;4.28;;;8.70;71.80;;;;;;4985093;28;20077;-83
2022/11/24 07:10:42;;;;;;;23.33;4.95;;;8.70;71.90;;;;;;4985681;28;20108;-81
2022/11/24 07:13:26;;;;;;;16.90;5.72;;;8.80;72.10;;;;;;4959966;28;20107;-86
2022/11/24 07:16:19;;;;;;;21.10;4.82;;;8.80;72.10;;;;;;4987259;28;20065;-90
2022/11/24 07:19:04;;;;;;;24.00;4.03;;;8.80;72.10;;;;;;4983757;28;20589;-89
2022/11/24 07:21:48;;;;;;;20.88;4.90;;;8.90;72.70;;;;;;4991805;28;20049;-85
2022/11/24 07:24:33;;;;;;;17.80;4.68;;;8.90;72.20;;;;;;4986169;28;20061;-87
2022/11/24 07:27:17;;;;;;;16.95;3.50;;;8.90;72.30;;;;;;4996060;28;20073;-89
2022/11/24 07:30:03;;;;;;;20.17;4.22;;;8.90;72.20;;;;;;4986312;28;20073;-83
2022/11/24 07:32:47;;;;;;;24.00;4.80;;;9.00;72.40;;;;;;4982318;28;20076;-83
2022/11/24 07:35:32;;;;;;;15.45;3.97;;;9.00;72.40;;;;;;4986212;28;20049;-89
2022/11/24 07:38:17;;;;;;;21.55;4.03;;;9.10;72.60;;;;;;4987918;28;20508;-81
2022/11/24 07:41:07;;;;;;;21.63;3.67;;;9.10;72.50;;;;;;4985685;28;20544;-85
2022/11/24 07:43:51;;;;;;;16.05;3.85;;;9.20;72.70;;;;;;4986735;28;20152;-87
2022/11/24 07:46:36;;;;;;;14.00;4.40;;;9.20;72.60;;;;;;4978231;28;20236;-89
2022/11/24 07:49:21;;;;;;;25.90;5.32;;;9.20;72.60;;;;;;4984251;28;20457;-90
2022/11/24 07:52:06;;;;;;;29.23;5.00;;;9.30;72.80;;;;;;4985956;28;20041;-93
2022/11/24 07:54:51;;;;;;;22.30;5.65;;;9.40;72.90;;;;;;4973160;28;20066;-81
2022/11/24 07:57:35;;;;;;;19.40;4.40;;;9.40;72.90;;;;;;4983108;28;20048;-83
2022/11/24 08:00:20;;;;;;;22.48;4.95;;;9.50;73.00;;;;;;4983799;28;20165;-83
2022/11/24 08:03:05;;;;;;;21.70;5.57;;;9.50;72.90;;;;;;4985479;28;20064;-87
2022/11/24 08:05:59;;;;;;;16.40;4.30;;;9.60;73.10;;;;;;4985876;28;20105;-90
2022/11/24 08:08:44;;;;;;;26.77;3.97;;;9.70;73.30;;;;;;4984689;28;20045;-86
2022/11/24 08:11:30;;;;;;;23.92;4.65;;;9.70;73.20;;;;;;4995113;28;20056;-94
2022/11/24 08:14:14;;;;;;;19.38;4.25;;;9.70;73.20;;;;;;4979719;28;20502;-90
2022/11/24 08:16:59;;;;;;;25.35;5.55;;;9.80;73.30;;;;;;4985363;28;20092;-92
2022/11/24 08:19:43;;;;;;;24.48;5.22;;;9.80;73.30;;;;;;4987132;28;20045;-91
2022/11/24 08:22:28;;;;;;;17.95;4.13;;;9.90;73.50;;;;;;4978767;28;20036;-90
2022/11/24 08:25:14;;;;;;;21.58;3.95;;;9.90;73.40;;;;;;4993229;28;20053;-88
2022/11/24 08:27:59;;;;;;;22.42;4.32;;;10.00;73.50;;;;;;4995772;28;20256;-87
2022/11/24 08:30:44;;;;;;;23.35;5.30;;;10.00;73.50;;;;;;4998210;28;20098;-90
2022/11/24 08:33:29;;;;;;;26.00;5.35;;;10.10;73.60;;;;;;5010767;28;20049;-90
2022/11/24 08:36:16;;;;;;;21.58;5.20;;;10.10;73.70;;;;;;5003918;28;20200;-91
2022/11/24 08:39:01;;;;;;;26.52;4.65;;;10.10;73.50;;;;;;5010377;28;20053;-89
2022/11/24 08:41:46;;;;;;;22.63;4.20;;;10.20;73.70;;;;;;5002329;28;20553;-87
2022/11/24 08:44:31;;;;;;;24.73;5.65;;;10.30;73.80;;;;;;4985279;28;20132;-87
2022/11/24 08:47:15;;;;;;;15.65;3.92;;;10.40;73.90;;;;;;4979716;28;20231;-92
2022/11/24 08:50:00;;;;;;;22.80;5.45;;;10.40;73.80;;;;;;4987783;28;20044;-94
2022/11/24 08:52:44;;;;;;;23.65;4.72;;;10.50;73.80;;;;;;4995497;28;20081;-94
2022/11/24 08:55:29;;;;;;;18.85;4.35;;;10.60;73.80;;;;;;4993400;28;20045;-95
2022/11/24 08:58:14;;;;;;;16.13;3.92;;;10.70;73.90;;;;;;4978855;28;20046;-94
2022/11/24 09:01:07;;;;;;;18.58;4.53;;;10.70;73.70;;;;;;4984943;28;20042;-84
2022/11/24 09:03:52;;;;;;;20.52;5.00;;;10.80;73.80;;;;;;4983374;28;20144;-85
2022/11/24 09:06:36;;;;;;;19.73;4.53;;;10.90;73.90;;;;;;4983339;28;20108;-86
2022/11/24 09:09:21;;;;;;;22.77;4.20;;;10.90;73.80;;;;;;4986481;28;20072;-87
2022/11/24 09:12:08;;;;;;;19.33;4.80;;;11.00;73.90;;;;;;4982203;28;20076;-87
2022/11/24 09:14:52;;;;;;;20.75;4.35;;;11.10;73.90;;;;;;4984666;28;20058;-85
2022/11/24 09:17:37;;;;;;;19.77;4.63;;;11.10;73.80;;;;;;4976445;28;20244;-91
2022/11/24 09:20:22;;;;;;;21.88;4.00;;;11.20;73.90;;;;;;4992371;28;20044;-91
2022/11/24 09:23:06;;;;;;;18.45;4.38;;;11.30;73.90;;;;;;4984484;28;20089;-92
2022/11/24 09:25:51;;;;;;;19.50;4.20;;;11.40;73.90;;;;;;4989022;28;20073;-91
2022/11/24 09:28:36;;;;;;;16.20;3.25;;;11.50;73.90;;;;;;4985630;28;20402;-90
2022/11/24 09:31:28;;;;;;;15.93;4.70;;;11.60;73.90;;;;;;4989167;28;20108;-87
2022/11/24 09:34:14;;;;;;;15.90;4.80;;;11.70;73.70;;;;;;4977105;28;20100;-81
2022/11/24 09:36:59;;;;;;;22.75;4.45;;;12.00;73.90;;;;;;4981062;28;20168;-84
2022/11/24 09:39:44;;;;;;;18.10;3.40;;;12.10;73.70;;;;;;4983534;28;20219;-81
2022/11/24 09:42:29;;;;;;;15.18;3.33;;;12.30;73.60;;;;;;4978741;28;20128;-82
2022/11/24 09:45:19;;;;;;;15.55;3.40;;;12.50;73.60;;;;;;4971293;28;20101;-83
2022/11/24 09:48:21;;;;;;;20.70;3.15;;;12.60;73.60;;;;;;4984093;28;20053;-82
2022/11/24 09:51:10;;;;;;;15.77;3.08;;;12.70;73.50;;;;;;4981846;28;20118;-83
2022/11/24 09:54:26;;;;;;;17.17;4.18;;;12.90;73.60;;;;;;4985264;28;20144;-82
2022/11/24 09:57:13;;;;;;;14.77;4.03;;;13.00;73.50;;;;;;4980320;28;20631;-91
2022/11/24 10:00:05;;;;;;;16.83;4.93;;;13.10;73.30;;;;;;4987113;28;20349;-92
2022/11/24 10:02:56;;;;;;;19.10;3.85;;;13.20;73.30;;;;;;4972649;28;20072;-85
2022/11/24 10:05:42;;;;;;;14.88;5.63;;;13.20;73.10;;;;;;4985364;28;20084;-86
2022/11/24 10:08:38;;;;;;;14.13;4.55;;;13.30;73.20;;;;;;4983022;28;20100;-88
2022/11/24 10:11:48;;;;;;;19.15;4.50;;;13.30;73.20;;;;;;4977172;28;20087;-89
2022/11/24 10:15:04;;;;;;;16.20;3.35;;;13.30;73.10;;;;;;4969825;28;20042;-88
2022/11/24 10:18:26;;;;;;;19.15;4.07;;;13.40;73.20;;;;;;4975803;28;20449;-83
2022/11/24 10:21:27;;;;;;;15.30;4.25;;;13.40;73.10;;;;;;4966521;28;20042;-82
2022/11/24 10:24:18;;;;;;;17.77;4.22;;;13.50;73.20;;;;;;4975917;28;20069;-89
2022/11/24 10:27:16;;;;;;;14.25;3.83;;;13.50;73.10;;;;;;4986009;28;20204;-91
2022/11/24 10:30:01;;;;;;;21.52;4.60;;;13.50;73.20;;;;;;4989394;28;20041;-94
2022/11/24 10:32:57;;;;;;;18.23;4.03;;;13.70;73.50;;;;;;4987071;28;20406;-90
2022/11/24 10:35:54;;;;;;;15.20;4.75;;;13.80;73.50;;;;;;4985281;28;20050;-80
2022/11/24 10:39:10;;;;;;;17.25;4.15;;;13.90;73.50;;;;;;4976958;28;20042;-83
2022/11/24 10:42:16;;;;;;;12.70;3.17;;;14.00;73.50;;;;;;4972667;28;20200;-87
2022/11/24 10:45:16;;;;;;;15.85;3.90;;;14.10;73.40;;;;;;4983425;28;20689;-83
2022/11/24 10:48:00;;;;;;;16.65;4.72;;;14.20;73.30;;;;;;4978148;28;20057;-82
2022/11/24 10:50:45;;;;;;;15.25;4.10;;;14.30;73.30;;;;;;4983969;28;20053;-82
2022/11/24 10:53:31;;;;;;;12.23;3.90;;;14.30;73.10;;;;;;4966692;28;20049;-80
2022/11/24 10:56:17;;;;;;;15.35;4.95;;;14.40;73.10;;;;;;4983681;28;20240;-82
2022/11/24 10:59:24;;;;;;;13.00;3.67;;;14.40;73.00;;;;;;4968746;28;20049;-82
2022/11/24 11:02:29;;;;;;;16.35;4.35;;;14.40;72.80;;;;;;4983330;28;20278;-81
2022/11/24 11:05:26;;;;;;;15.77;3.75;;;14.40;72.80;;;;;;4970090;28;20267;-82
2022/11/24 11:08:29;;;;;;;18.20;4.07;;;14.40;72.80;;;;;;4984689;28;20053;-83
2022/11/24 11:11:19;;;;;;;16.25;3.38;;;14.40;73.00;;;;;;4980900;28;20072;-81
2022/11/24 11:14:06;;;;;;;15.15;3.83;;;14.30;72.80;;;;;;4981313;28;20049;-92
2022/11/24 11:16:56;;;;;;;15.57;4.05;;;14.30;72.90;;;;;;4983034;28;20036;-83
2022/11/24 11:19:46;;;;;;;13.27;3.42;;;14.30;72.90;;;;;;4981037;28;20744;-82
2022/11/24 11:22:35;;;;;;;12.80;3.20;;;14.20;72.80;;;;;;4971920;28;20053;-82
2022/11/24 11:25:24;;;;;;;12.40;4.55;;;14.20;72.90;;;;;;4981635;28;20367;-82
2022/11/24 11:28:29;;;;;;;14.48;3.28;;;14.20;72.80;;;;;;4985428;28;20400;-85
2022/11/24 11:31:19;;;;;;;9.98;4.03;;;14.30;72.80;;;;;;4984833;28;20100;-83
2022/11/24 11:34:18;;;;;;;8.52;2.67;;;14.40;72.80;;;;;;4971099;28;20608;-83
2022/11/24 11:37:03;;;;;;;13.27;3.08;;;14.40;72.60;;;;;;4983932;28;20122;-83
2022/11/24 11:39:50;;;;;;;13.95;3.42;;;14.40;72.60;;;;;;4981278;28;20117;-83
2022/11/24 11:42:40;;;;;;;14.52;3.55;;;14.40;72.60;;;;;;4979604;28;20045;-82
2022/11/24 11:45:43;;;;;;;13.68;3.53;;;14.50;72.60;;;;;;4969109;28;20046;-91
2022/11/24 11:48:34;;;;;;;18.08;3.67;;;14.50;72.40;;;;;;4973100;28;20112;-86
2022/11/24 11:51:48;;;;;;;11.77;3.05;;;14.50;72.40;;;;;;4983595;28;20041;-87
2022/11/24 11:54:52;;;;;;;12.82;4.05;;;14.40;72.20;;;;;;4966823;28;20049;-90
2022/11/24 11:57:54;;;;;;;13.27;4.00;;;14.40;72.30;;;;;;4988442;28;20088;-84
2022/11/24 12:00:46;;;;;;;12.98;3.45;;;14.40;72.40;;;;;;4980493;28;20430;-87
2022/11/24 12:03:38;;;;;;;11.07;2.72;;;14.40;72.50;;;;;;4988578;28;20084;-83
2022/11/24 12:06:32;;;;;;;13.20;3.15;;;14.40;72.60;;;;;;4988031;28;20124;-85
2022/11/24 12:09:26;;;;;;;14.75;4.85;;;14.30;72.40;;;;;;4983548;28;20038;-86
2022/11/24 12:12:31;;;;;;;14.00;4.55;;;14.30;72.60;;;;;;4983759;28;20437;-85
2022/11/24 12:15:43;;;;;;;9.80;3.10;;;14.30;72.70;;;;;;4986595;28;20065;-82
2022/11/24 12:18:43;;;;;;;11.10;3.50;;;14.20;72.70;;;;;;4985320;28;20033;-81
2022/11/24 12:21:45;;;;;;;13.50;3.72;;;14.20;72.80;;;;;;4986811;28;20041;-82
2022/11/24 12:24:51;;;;;;;14.57;3.28;;;14.10;72.70;;;;;;4986101;28;20041;-88
2022/11/24 12:27:46;;;;;;;15.88;5.03;;;14.10;72.80;;;;;;4977263;28;20061;-87
2022/11/24 12:31:06;;;;;;;14.68;4.55;;;14.10;72.80;;;;;;4986749;28;20110;-90
2022/11/24 12:33:54;;;;;;;12.43;3.42;;;14.10;72.80;;;;;;4975420;28;20120;-84
2022/11/24 12:37:07;;;;;;;20.30;4.30;;;14.10;72.80;;;;;;4984983;28;20557;-84
2022/11/24 12:39:51;;;;;;;14.40;3.20;;;14.10;72.80;;;;;;4978060;28;20081;-86
2022/11/24 12:43:02;;;;;;;17.35;3.97;;;14.10;72.80;;;;;;4986895;28;20513;-85
2022/11/24 12:46:06;;;;;;;11.43;3.25;;;14.10;72.90;;;;;;4970693;28;20062;-90
2022/11/24 12:49:18;;;;;;;12.68;4.85;;;14.10;72.90;;;;;;4975994;28;20077;-86
2022/11/24 12:52:23;;;;;;;16.85;3.70;;;14.00;72.80;;;;;;5002620;28;20225;-83
2022/11/24 12:55:18;;;;;;;10.68;2.80;;;14.00;72.90;;;;;;4990355;28;20042;-83
2022/11/24 12:58:31;;;;;;;15.63;4.82;;;14.00;73.00;;;;;;4989409;28;20468;-84
2022/11/24 13:01:37;;;;;;;15.48;3.42;;;14.00;72.90;;;;;;4993330;28;20084;-84
2022/11/24 13:04:50;;;;;;;17.15;3.67;;;14.00;73.00;;;;;;5002097;28;20049;-83
2022/11/24 13:07:45;;;;;;;13.18;3.03;;;14.00;73.00;;;;;;4988826;28;20053;-83
2022/11/24 13:10:36;;;;;;;13.20;3.53;;;14.00;73.20;;;;;;4989240;28;20052;-85
2022/11/24 13:13:25;;;;;;;12.90;3.83;;;13.90;73.00;;;;;;4983979;28;20050;-82
2022/11/24 13:16:14;;;;;;;10.90;3.13;;;13.90;73.10;;;;;;4986721;28;20054;-86
2022/11/24 13:19:13;;;;;;;12.48;2.67;;;13.90;73.30;;;;;;4989121;28;20414;-84
2022/11/24 13:22:01;;;;;;;8.77;2.85;;;13.80;73.20;;;;;;4990507;28;20062;-94
2022/11/24 13:25:14;;;;;;;8.43;2.53;;;13.80;73.30;;;;;;4992903;28;20085;-91
2022/11/24 13:28:01;;;;;;;11.93;2.90;;;13.70;73.20;;;;;;4983469;28;20227;-90
2022/11/24 13:30:53;;;;;;;9.93;2.70;;;13.80;73.50;;;;;;4979761;28;20268;-89
2022/11/24 13:33:38;;;;;;;9.73;2.63;;;13.80;73.50;;;;;;4991292;28;20065;-90
2022/11/24 13:36:22;;;;;;;8.80;3.72;;;13.70;73.30;;;;;;4985380;28;20405;-86
2022/11/24 13:39:19;;;;;;;8.82;2.85;;;13.80;73.50;;;;;;4986667;28;20088;-80
2022/11/24 13:42:03;;;;;;;11.48;2.65;;;13.70;73.30;;;;;;4972582;28;20514;-89
2022/11/24 13:44:53;;;;;;;10.50;3.00;;;13.70;73.40;;;;;;4983858;28;20072;-84
2022/11/24 13:47:45;;;;;;;10.30;2.65;;;13.60;73.30;;;;;;4980722;28;20061;-90
2022/11/24 13:50:48;;;;;;;7.40;2.08;;;13.60;73.30;;;;;;4984599;28;20045;-92
2022/11/24 13:53:39;;;;;;;6.72;2.08;;;13.50;73.10;;;;;;4978387;28;20609;-91
2022/11/24 13:56:27;;;;;;;9.27;2.33;;;13.50;73.20;;;;;;4973192;28;20080;-92
2022/11/24 13:59:31;;;;;;;10.10;2.10;;;13.50;73.20;;;;;;4986825;28;20111;-89
2022/11/24 14:02:21;;;;;;;;;;;13.40;73.10;;;;;;4984216;28;20045;-91
2022/11/24 14:05:11;;;;;;;7.18;2.85;;;13.40;73.20;;;;;;4983316;28;19921;-86
2022/11/24 14:07:56;;;;;;;7.00;2.00;;;13.40;73.20;;;;;;4974091;28;20045;-79
2022/11/24 14:10:41;;;;;;;5.45;1.58;;;13.30;73.10;;;;;;4984018;28;20049;-82
2022/11/24 14:13:27;;;;;;;10.45;2.17;;;13.30;73.10;;;;;;4983511;28;20068;-80
2022/11/24 14:16:14;;;;;;;8.32;3.25;;;13.30;73.20;;;;;;4973836;28;20124;-89
2022/11/24 14:19:09;;;;;;;4.90;2.28;;;13.30;73.20;;;;;;4985025;28;20049;-86
2022/11/24 14:21:53;;;;;;;8.45;2.30;;;13.30;73.20;;;;;;4979154;28;20409;-83
2022/11/24 14:24:38;;;;;;;6.93;2.22;;;13.30;73.10;;;;;;4985534;28;20097;-84
2022/11/24 14:27:35;;;;;;;7.63;1.90;;;13.40;73.20;;;;;;4984006;28;20065;-84
2022/11/24 14:30:22;;;;;;;7.00;1.85;;;13.40;73.00;;;;;;4982222;28;20472;-83
2022/11/24 14:33:12;;;;;;;5.78;1.80;;;13.50;73.00;;;;;;4980486;28;20291;-90
2022/11/24 14:35:56;;;;;;;8.40;2.10;;;13.60;73.00;;;;;;4977825;28;20097;-85
2022/11/24 14:38:42;;;;;;;8.43;2.80;;;13.70;73.00;;;;;;4979169;28;20069;-92
2022/11/24 14:41:27;;;;;;;8.25;2.38;;;13.60;72.70;;;;;;4988188;28;20053;-92